sensor_id;sensor_type;location;lat;lon;timestamp;P1;durP1;ratioP1;P2;durP2;ratioP2
56943;SDS011;42848;42.524;12.052;2024-03-17T00:02:12;12.00;;;7.40;;
56943;SDS011;42848;42.524;12.052;2024-03-17T00:04:38;13.07;;;7.95;;
56943;SDS011;42848;42.524;12.052;2024-03-17T00:07:04;11.52;;;7.45;;
56943;SDS011;42848;42.524;12.052;2024-03-17T00:09:29;10.30;;;6.93;;
56943;SDS011;42848;42.524;12.052;2024-03-17T00:11:55;9.68;;;6.60;;
56943;SDS011;42848;42.524;12.052;2024-03-17T00:14:21;9.93;;;6.75;;
56943;SDS011;42848;42.524;12.052;2024-03-17T00:16:47;10.80;;;6.55;;
56943;SDS011;42848;42.524;12.052;2024-03-17T00:19:14;9.70;;;5.70;;
56943;SDS011;42848;42.524;12.052;2024-03-17T00:21:42;10.60;;;6.63;;
56943;SDS011;42848;42.524;12.052;2024-03-17T00:24:09;10.85;;;6.50;;
56943;SDS011;42848;42.524;12.052;2024-03-17T00:26:35;10.20;;;6.22;;
56943;SDS011;42848;42.524;12.052;2024-03-17T00:29:01;9.45;;;6.57;;
56943;SDS011;42848;42.524;12.052;2024-03-17T00:31:28;10.02;;;6.15;;
56943;SDS011;42848;42.524;12.052;2024-03-17T00:33:54;9.80;;;6.00;;
56943;SDS011;42848;42.524;12.052;2024-03-17T00:36:20;10.13;;;5.90;;
56943;SDS011;42848;42.524;12.052;2024-03-17T00:38:45;9.02;;;6.43;;
56943;SDS011;42848;42.524;12.052;2024-03-17T00:41:11;8.82;;;6.00;;
56943;SDS011;42848;42.524;12.052;2024-03-17T00:43:37;9.27;;;5.85;;
56943;SDS011;42848;42.524;12.052;2024-03-17T00:46:02;9.63;;;6.38;;
56943;SDS011;42848;42.524;12.052;2024-03-17T00:48:29;9.45;;;6.22;;
56943;SDS011;42848;42.524;12.052;2024-03-17T00:50:57;10.68;;;6.50;;
56943;SDS011;42848;42.524;12.052;2024-03-17T00:53:24;10.45;;;5.97;;
56943;SDS011;42848;42.524;12.052;2024-03-17T00:55:53;9.93;;;5.70;;
56943;SDS011;42848;42.524;12.052;2024-03-17T00:58:23;10.43;;;6.05;;
56943;SDS011;42848;42.524;12.052;2024-03-17T01:00:49;10.35;;;5.82;;
56943;SDS011;42848;42.524;12.052;2024-03-17T01:03:15;10.85;;;6.63;;
56943;SDS011;42848;42.524;12.052;2024-03-17T01:05:42;9.32;;;5.97;;
56943;SDS011;42848;42.524;12.052;2024-03-17T01:08:10;9.60;;;6.03;;
56943;SDS011;42848;42.524;12.052;2024-03-17T01:10:39;10.95;;;6.68;;
56943;SDS011;42848;42.524;12.052;2024-03-17T01:13:06;8.63;;;5.93;;
56943;SDS011;42848;42.524;12.052;2024-03-17T01:15:34;8.48;;;6.30;;
56943;SDS011;42848;42.524;12.052;2024-03-17T01:18:02;9.18;;;6.45;;
56943;SDS011;42848;42.524;12.052;2024-03-17T01:20:29;10.60;;;6.50;;
56943;SDS011;42848;42.524;12.052;2024-03-17T01:22:55;10.98;;;6.38;;
56943;SDS011;42848;42.524;12.052;2024-03-17T01:25:21;11.07;;;6.40;;
56943;SDS011;42848;42.524;12.052;2024-03-17T01:27:47;9.85;;;6.70;;
56943;SDS011;42848;42.524;12.052;2024-03-17T01:30:12;9.35;;;6.32;;
56943;SDS011;42848;42.524;12.052;2024-03-17T01:32:38;11.30;;;6.22;;
56943;SDS011;42848;42.524;12.052;2024-03-17T01:35:04;11.10;;;6.30;;
56943;SDS011;42848;42.524;12.052;2024-03-17T01:37:31;20.77;;;6.47;;
56943;SDS011;42848;42.524;12.052;2024-03-17T01:40:00;11.57;;;6.70;;
56943;SDS011;42848;42.524;12.052;2024-03-17T01:42:26;11.98;;;6.63;;
56943;SDS011;42848;42.524;12.052;2024-03-17T01:44:51;10.07;;;6.60;;
56943;SDS011;42848;42.524;12.052;2024-03-17T01:47:17;11.82;;;6.43;;
56943;SDS011;42848;42.524;12.052;2024-03-17T01:49:47;12.45;;;6.50;;
56943;SDS011;42848;42.524;12.052;2024-03-17T01:52:16;9.88;;;6.57;;
56943;SDS011;42848;42.524;12.052;2024-03-17T01:54:42;9.77;;;6.50;;
56943;SDS011;42848;42.524;12.052;2024-03-17T01:57:09;9.50;;;6.50;;
56943;SDS011;42848;42.524;12.052;2024-03-17T01:59:36;10.93;;;6.45;;
56943;SDS011;42848;42.524;12.052;2024-03-17T02:02:02;10.98;;;6.70;;
56943;SDS011;42848;42.524;12.052;2024-03-17T02:04:27;10.38;;;6.50;;
56943;SDS011;42848;42.524;12.052;2024-03-17T02:06:54;10.02;;;6.85;;
56943;SDS011;42848;42.524;12.052;2024-03-17T02:09:20;10.05;;;6.35;;
56943;SDS011;42848;42.524;12.052;2024-03-17T02:11:47;11.63;;;6.32;;
56943;SDS011;42848;42.524;12.052;2024-03-17T02:14:13;9.43;;;6.65;;
56943;SDS011;42848;42.524;12.052;2024-03-17T02:16:43;10.55;;;6.63;;
56943;SDS011;42848;42.524;12.052;2024-03-17T02:19:08;11.52;;;6.57;;
56943;SDS011;42848;42.524;12.052;2024-03-17T02:21:34;10.52;;;6.18;;
56943;SDS011;42848;42.524;12.052;2024-03-17T02:24:00;9.65;;;6.30;;
56943;SDS011;42848;42.524;12.052;2024-03-17T02:26:28;11.50;;;6.93;;
56943;SDS011;42848;42.524;12.052;2024-03-17T02:28:53;11.70;;;6.88;;
56943;SDS011;42848;42.524;12.052;2024-03-17T02:31:19;11.95;;;6.53;;
56943;SDS011;42848;42.524;12.052;2024-03-17T02:33:45;11.35;;;6.90;;
56943;SDS011;42848;42.524;12.052;2024-03-17T02:36:11;11.45;;;6.78;;
56943;SDS011;42848;42.524;12.052;2024-03-17T02:38:38;13.25;;;6.60;;
56943;SDS011;42848;42.524;12.052;2024-03-17T02:41:23;10.68;;;6.32;;
56943;SDS011;42848;42.524;12.052;2024-03-17T02:43:49;11.80;;;6.72;;
56943;SDS011;42848;42.524;12.052;2024-03-17T02:46:16;12.27;;;6.20;;
56943;SDS011;42848;42.524;12.052;2024-03-17T02:48:44;11.40;;;6.47;;
56943;SDS011;42848;42.524;12.052;2024-03-17T02:51:12;10.68;;;6.75;;
56943;SDS011;42848;42.524;12.052;2024-03-17T02:53:43;10.30;;;6.45;;
56943;SDS011;42848;42.524;12.052;2024-03-17T02:56:12;10.68;;;6.90;;
56943;SDS011;42848;42.524;12.052;2024-03-17T02:58:43;9.93;;;6.55;;
56943;SDS011;42848;42.524;12.052;2024-03-17T03:01:11;10.85;;;6.70;;
56943;SDS011;42848;42.524;12.052;2024-03-17T03:03:37;11.23;;;7.22;;
56943;SDS011;42848;42.524;12.052;2024-03-17T03:06:03;11.23;;;6.70;;
56943;SDS011;42848;42.524;12.052;2024-03-17T03:08:34;12.02;;;7.18;;
56943;SDS011;42848;42.524;12.052;2024-03-17T03:11:02;11.80;;;7.20;;
56943;SDS011;42848;42.524;12.052;2024-03-17T03:13:29;11.35;;;7.35;;
56943;SDS011;42848;42.524;12.052;2024-03-17T03:15:55;12.48;;;7.40;;
56943;SDS011;42848;42.524;12.052;2024-03-17T03:18:20;11.95;;;7.60;;
56943;SDS011;42848;42.524;12.052;2024-03-17T03:20:52;13.18;;;7.78;;
56943;SDS011;42848;42.524;12.052;2024-03-17T03:23:18;13.00;;;7.25;;
56943;SDS011;42848;42.524;12.052;2024-03-17T03:25:44;12.65;;;7.60;;
56943;SDS011;42848;42.524;12.052;2024-03-17T03:28:13;12.55;;;7.18;;
56943;SDS011;42848;42.524;12.052;2024-03-17T03:30:39;11.35;;;7.50;;
56943;SDS011;42848;42.524;12.052;2024-03-17T03:33:05;11.25;;;7.45;;
56943;SDS011;42848;42.524;12.052;2024-03-17T03:35:31;11.55;;;7.50;;
56943;SDS011;42848;42.524;12.052;2024-03-17T03:37:57;11.90;;;7.10;;
56943;SDS011;42848;42.524;12.052;2024-03-17T03:40:22;12.13;;;7.25;;
56943;SDS011;42848;42.524;12.052;2024-03-17T03:42:50;13.25;;;7.20;;
56943;SDS011;42848;42.524;12.052;2024-03-17T03:45:15;11.63;;;7.15;;
56943;SDS011;42848;42.524;12.052;2024-03-17T03:47:42;10.98;;;7.10;;
56943;SDS011;42848;42.524;12.052;2024-03-17T03:50:08;11.35;;;7.57;;
56943;SDS011;42848;42.524;12.052;2024-03-17T03:52:35;12.13;;;7.78;;
56943;SDS011;42848;42.524;12.052;2024-03-17T03:55:02;11.50;;;6.93;;
56943;SDS011;42848;42.524;12.052;2024-03-17T03:57:29;10.68;;;6.53;;
56943;SDS011;42848;42.524;12.052;2024-03-17T03:59:57;10.77;;;6.45;;
56943;SDS011;42848;42.524;12.052;2024-03-17T04:02:25;8.43;;;5.95;;
56943;SDS011;42848;42.524;12.052;2024-03-17T04:04:56;11.02;;;6.32;;
56943;SDS011;42848;42.524;12.052;2024-03-17T04:07:23;10.82;;;6.15;;
56943;SDS011;42848;42.524;12.052;2024-03-17T04:09:49;11.57;;;6.22;;
56943;SDS011;42848;42.524;12.052;2024-03-17T04:12:14;10.80;;;6.60;;
56943;SDS011;42848;42.524;12.052;2024-03-17T04:14:40;10.40;;;6.63;;
56943;SDS011;42848;42.524;12.052;2024-03-17T04:17:05;12.85;;;6.97;;
56943;SDS011;42848;42.524;12.052;2024-03-17T04:19:31;10.07;;;6.65;;
56943;SDS011;42848;42.524;12.052;2024-03-17T04:21:57;11.55;;;6.72;;
56943;SDS011;42848;42.524;12.052;2024-03-17T04:24:22;10.43;;;6.88;;
56943;SDS011;42848;42.524;12.052;2024-03-17T04:26:48;11.50;;;6.88;;
56943;SDS011;42848;42.524;12.052;2024-03-17T04:29:13;11.70;;;6.50;;
56943;SDS011;42848;42.524;12.052;2024-03-17T04:31:40;10.93;;;6.78;;
56943;SDS011;42848;42.524;12.052;2024-03-17T04:34:07;10.82;;;6.57;;
56943;SDS011;42848;42.524;12.052;2024-03-17T04:36:32;9.55;;;6.13;;
56943;SDS011;42848;42.524;12.052;2024-03-17T04:38:58;10.02;;;6.20;;
56943;SDS011;42848;42.524;12.052;2024-03-17T04:41:23;10.90;;;6.07;;
56943;SDS011;42848;42.524;12.052;2024-03-17T04:43:49;10.25;;;6.70;;
56943;SDS011;42848;42.524;12.052;2024-03-17T04:46:15;12.18;;;6.10;;
56943;SDS011;42848;42.524;12.052;2024-03-17T04:48:40;10.85;;;6.57;;
56943;SDS011;42848;42.524;12.052;2024-03-17T04:51:07;10.05;;;5.75;;
56943;SDS011;42848;42.524;12.052;2024-03-17T04:53:32;9.63;;;6.00;;
56943;SDS011;42848;42.524;12.052;2024-03-17T04:56:02;7.78;;;5.30;;
56943;SDS011;42848;42.524;12.052;2024-03-17T04:58:30;8.23;;;5.47;;
56943;SDS011;42848;42.524;12.052;2024-03-17T05:00:57;8.15;;;5.43;;
56943;SDS011;42848;42.524;12.052;2024-03-17T05:03:22;10.60;;;5.60;;
56943;SDS011;42848;42.524;12.052;2024-03-17T05:05:48;8.13;;;5.07;;
56943;SDS011;42848;42.524;12.052;2024-03-17T05:08:14;7.40;;;5.22;;
56943;SDS011;42848;42.524;12.052;2024-03-17T05:10:40;9.02;;;4.93;;
56943;SDS011;42848;42.524;12.052;2024-03-17T05:13:05;7.93;;;4.93;;
56943;SDS011;42848;42.524;12.052;2024-03-17T05:15:31;7.32;;;4.60;;
56943;SDS011;42848;42.524;12.052;2024-03-17T05:17:56;8.45;;;4.60;;
56943;SDS011;42848;42.524;12.052;2024-03-17T05:20:22;7.60;;;4.75;;
56943;SDS011;42848;42.524;12.052;2024-03-17T05:22:48;8.93;;;4.60;;
56943;SDS011;42848;42.524;12.052;2024-03-17T05:25:14;6.72;;;4.22;;
56943;SDS011;42848;42.524;12.052;2024-03-17T05:27:40;7.50;;;4.50;;
56943;SDS011;42848;42.524;12.052;2024-03-17T05:30:06;7.97;;;4.70;;
56943;SDS011;42848;42.524;12.052;2024-03-17T05:32:34;9.80;;;4.80;;
56943;SDS011;42848;42.524;12.052;2024-03-17T05:34:59;8.60;;;4.80;;
56943;SDS011;42848;42.524;12.052;2024-03-17T05:37:25;9.43;;;4.93;;
56943;SDS011;42848;42.524;12.052;2024-03-17T05:39:52;8.05;;;5.00;;
56943;SDS011;42848;42.524;12.052;2024-03-17T05:42:19;10.05;;;5.03;;
56943;SDS011;42848;42.524;12.052;2024-03-17T05:44:44;8.80;;;5.45;;
56943;SDS011;42848;42.524;12.052;2024-03-17T05:47:18;10.65;;;5.72;;
56943;SDS011;42848;42.524;12.052;2024-03-17T05:49:44;8.73;;;5.75;;
56943;SDS011;42848;42.524;12.052;2024-03-17T05:52:11;8.77;;;5.82;;
56943;SDS011;42848;42.524;12.052;2024-03-17T05:54:37;12.85;;;6.25;;
56943;SDS011;42848;42.524;12.052;2024-03-17T05:57:03;11.30;;;5.93;;
56943;SDS011;42848;42.524;12.052;2024-03-17T05:59:30;10.05;;;6.32;;
56943;SDS011;42848;42.524;12.052;2024-03-17T06:01:58;11.35;;;6.78;;
56943;SDS011;42848;42.524;12.052;2024-03-17T06:04:24;10.77;;;6.15;;
56943;SDS011;42848;42.524;12.052;2024-03-17T06:06:50;8.73;;;6.07;;
56943;SDS011;42848;42.524;12.052;2024-03-17T06:09:15;10.48;;;5.68;;
56943;SDS011;42848;42.524;12.052;2024-03-17T06:11:44;10.55;;;6.00;;
56943;SDS011;42848;42.524;12.052;2024-03-17T06:14:11;8.52;;;5.55;;
56943;SDS011;42848;42.524;12.052;2024-03-17T06:16:38;9.48;;;5.80;;
56943;SDS011;42848;42.524;12.052;2024-03-17T06:19:04;10.15;;;5.80;;
56943;SDS011;42848;42.524;12.052;2024-03-17T06:21:30;8.48;;;5.47;;
56943;SDS011;42848;42.524;12.052;2024-03-17T06:23:56;10.07;;;5.30;;
56943;SDS011;42848;42.524;12.052;2024-03-17T06:26:22;8.93;;;5.50;;
56943;SDS011;42848;42.524;12.052;2024-03-17T06:28:48;9.98;;;6.07;;
56943;SDS011;42848;42.524;12.052;2024-03-17T06:31:14;12.55;;;7.43;;
56943;SDS011;42848;42.524;12.052;2024-03-17T06:33:40;16.55;;;9.63;;
56943;SDS011;42848;42.524;12.052;2024-03-17T06:36:06;11.60;;;6.63;;
56943;SDS011;42848;42.524;12.052;2024-03-17T06:38:32;11.00;;;6.55;;
56943;SDS011;42848;42.524;12.052;2024-03-17T06:40:58;12.55;;;7.68;;
56943;SDS011;42848;42.524;12.052;2024-03-17T06:43:24;9.50;;;5.57;;
56943;SDS011;42848;42.524;12.052;2024-03-17T06:48:23;9.10;;;5.45;;
56943;SDS011;42848;42.524;12.052;2024-03-17T06:50:50;8.88;;;5.22;;
56943;SDS011;42848;42.524;12.052;2024-03-17T06:53:23;8.10;;;5.05;;
56943;SDS011;42848;42.524;12.052;2024-03-17T06:55:54;7.72;;;5.03;;
56943;SDS011;42848;42.524;12.052;2024-03-17T06:58:24;8.57;;;4.50;;
56943;SDS011;42848;42.524;12.052;2024-03-17T07:00:55;6.57;;;4.28;;
56943;SDS011;42848;42.524;12.052;2024-03-17T07:03:23;10.35;;;4.50;;
56943;SDS011;42848;42.524;12.052;2024-03-17T07:05:53;6.32;;;4.30;;
56943;SDS011;42848;42.524;12.052;2024-03-17T07:08:20;9.30;;;4.95;;
56943;SDS011;42848;42.524;12.052;2024-03-17T07:11:02;7.65;;;4.78;;
56943;SDS011;42848;42.524;12.052;2024-03-17T07:13:38;6.97;;;4.63;;
56943;SDS011;42848;42.524;12.052;2024-03-17T07:16:07;8.35;;;4.65;;
56943;SDS011;42848;42.524;12.052;2024-03-17T07:18:33;8.68;;;5.00;;
56943;SDS011;42848;42.524;12.052;2024-03-17T07:21:01;8.63;;;5.13;;
56943;SDS011;42848;42.524;12.052;2024-03-17T07:23:29;9.85;;;5.20;;
56943;SDS011;42848;42.524;12.052;2024-03-17T07:25:56;9.50;;;5.07;;
56943;SDS011;42848;42.524;12.052;2024-03-17T07:28:26;8.38;;;5.00;;
56943;SDS011;42848;42.524;12.052;2024-03-17T07:30:52;7.40;;;4.95;;
56943;SDS011;42848;42.524;12.052;2024-03-17T07:33:23;7.22;;;4.47;;
56943;SDS011;42848;42.524;12.052;2024-03-17T07:38:15;8.02;;;4.85;;
56943;SDS011;42848;42.524;12.052;2024-03-17T07:40:41;6.45;;;4.60;;
56943;SDS011;42848;42.524;12.052;2024-03-17T07:43:08;7.13;;;4.40;;
56943;SDS011;42848;42.524;12.052;2024-03-17T07:45:33;5.60;;;3.92;;
56943;SDS011;42848;42.524;12.052;2024-03-17T07:47:59;6.35;;;3.97;;
56943;SDS011;42848;42.524;12.052;2024-03-17T07:50:25;7.30;;;4.22;;
56943;SDS011;42848;42.524;12.052;2024-03-17T07:52:50;6.65;;;4.20;;
56943;SDS011;42848;42.524;12.052;2024-03-17T07:55:16;9.05;;;6.13;;
56943;SDS011;42848;42.524;12.052;2024-03-17T07:57:41;13.10;;;8.68;;
56943;SDS011;42848;42.524;12.052;2024-03-17T08:00:07;13.07;;;8.85;;
56943;SDS011;42848;42.524;12.052;2024-03-17T08:02:43;13.68;;;9.15;;
56943;SDS011;42848;42.524;12.052;2024-03-17T08:05:11;13.48;;;8.63;;
56943;SDS011;42848;42.524;12.052;2024-03-17T08:07:36;12.55;;;8.10;;
56943;SDS011;42848;42.524;12.052;2024-03-17T08:10:03;13.25;;;8.23;;
56943;SDS011;42848;42.524;12.052;2024-03-17T08:12:29;12.02;;;8.45;;
56943;SDS011;42848;42.524;12.052;2024-03-17T08:14:55;12.52;;;7.95;;
56943;SDS011;42848;42.524;12.052;2024-03-17T08:17:20;10.15;;;7.15;;
56943;SDS011;42848;42.524;12.052;2024-03-17T08:19:46;14.23;;;8.07;;
56943;SDS011;42848;42.524;12.052;2024-03-17T08:22:13;13.68;;;7.78;;
56943;SDS011;42848;42.524;12.052;2024-03-17T08:24:40;11.10;;;7.53;;
56943;SDS011;42848;42.524;12.052;2024-03-17T08:27:05;10.95;;;7.63;;
56943;SDS011;42848;42.524;12.052;2024-03-17T08:29:32;10.77;;;7.43;;
56943;SDS011;42848;42.524;12.052;2024-03-17T08:31:58;12.52;;;7.97;;
56943;SDS011;42848;42.524;12.052;2024-03-17T08:34:24;10.32;;;7.47;;
56943;SDS011;42848;42.524;12.052;2024-03-17T08:36:50;10.68;;;7.40;;
56943;SDS011;42848;42.524;12.052;2024-03-17T08:39:16;10.57;;;6.63;;
56943;SDS011;42848;42.524;12.052;2024-03-17T08:41:41;10.05;;;6.70;;
56943;SDS011;42848;42.524;12.052;2024-03-17T08:44:09;11.98;;;8.13;;
56943;SDS011;42848;42.524;12.052;2024-03-17T08:46:35;12.32;;;7.32;;
56943;SDS011;42848;42.524;12.052;2024-03-17T08:49:01;12.70;;;8.00;;
56943;SDS011;42848;42.524;12.052;2024-03-17T08:51:26;14.18;;;8.98;;
56943;SDS011;42848;42.524;12.052;2024-03-17T08:53:52;13.30;;;9.30;;
56943;SDS011;42848;42.524;12.052;2024-03-17T08:56:19;12.57;;;8.38;;
56943;SDS011;42848;42.524;12.052;2024-03-17T08:58:46;12.57;;;8.75;;
56943;SDS011;42848;42.524;12.052;2024-03-17T09:01:12;12.45;;;8.38;;
56943;SDS011;42848;42.524;12.052;2024-03-17T09:03:39;12.63;;;8.73;;
56943;SDS011;42848;42.524;12.052;2024-03-17T09:06:13;12.52;;;8.70;;
56943;SDS011;42848;42.524;12.052;2024-03-17T09:08:44;12.55;;;8.75;;
56943;SDS011;42848;42.524;12.052;2024-03-17T09:11:13;12.95;;;8.65;;
56943;SDS011;42848;42.524;12.052;2024-03-17T09:13:39;13.82;;;8.80;;
56943;SDS011;42848;42.524;12.052;2024-03-17T09:16:05;11.68;;;8.70;;
56943;SDS011;42848;42.524;12.052;2024-03-17T09:18:31;12.23;;;8.55;;
56943;SDS011;42848;42.524;12.052;2024-03-17T09:21:01;12.82;;;8.70;;
56943;SDS011;42848;42.524;12.052;2024-03-17T09:23:29;12.32;;;8.85;;
56943;SDS011;42848;42.524;12.052;2024-03-17T09:25:59;12.43;;;9.13;;
56943;SDS011;42848;42.524;12.052;2024-03-17T09:28:26;12.20;;;8.18;;
56943;SDS011;42848;42.524;12.052;2024-03-17T09:30:53;12.52;;;8.32;;
56943;SDS011;42848;42.524;12.052;2024-03-17T09:33:20;10.00;;;7.35;;
56943;SDS011;42848;42.524;12.052;2024-03-17T09:35:56;10.98;;;7.70;;
56943;SDS011;42848;42.524;12.052;2024-03-17T09:38:22;9.68;;;6.90;;
56943;SDS011;42848;42.524;12.052;2024-03-17T09:40:48;12.48;;;8.27;;
56943;SDS011;42848;42.524;12.052;2024-03-17T09:43:18;12.23;;;8.40;;
56943;SDS011;42848;42.524;12.052;2024-03-17T09:45:45;11.55;;;8.23;;
56943;SDS011;42848;42.524;12.052;2024-03-17T09:48:14;11.57;;;8.43;;
56943;SDS011;42848;42.524;12.052;2024-03-17T09:50:49;11.70;;;8.13;;
56943;SDS011;42848;42.524;12.052;2024-03-17T09:53:26;12.15;;;7.80;;
56943;SDS011;42848;42.524;12.052;2024-03-17T09:56:12;11.05;;;7.30;;
56943;SDS011;42848;42.524;12.052;2024-03-17T10:01:13;12.65;;;8.32;;
56943;SDS011;42848;42.524;12.052;2024-03-17T10:06:20;10.70;;;7.05;;
56943;SDS011;42848;42.524;12.052;2024-03-17T10:08:53;9.05;;;6.50;;
56943;SDS011;42848;42.524;12.052;2024-03-17T10:11:21;12.65;;;7.63;;
56943;SDS011;42848;42.524;12.052;2024-03-17T10:13:59;10.23;;;7.47;;
56943;SDS011;42848;42.524;12.052;2024-03-17T10:16:25;10.30;;;7.00;;
56943;SDS011;42848;42.524;12.052;2024-03-17T10:19:11;11.35;;;6.53;;
56943;SDS011;42848;42.524;12.052;2024-03-17T10:24:11;12.93;;;9.30;;
56943;SDS011;42848;42.524;12.052;2024-03-17T10:26:58;13.40;;;8.75;;
56943;SDS011;42848;42.524;12.052;2024-03-17T10:31:57;9.05;;;6.65;;
56943;SDS011;42848;42.524;12.052;2024-03-17T10:34:25;10.25;;;6.80;;
56943;SDS011;42848;42.524;12.052;2024-03-17T10:37:10;9.18;;;6.90;;
56943;SDS011;42848;42.524;12.052;2024-03-17T10:39:36;11.98;;;7.57;;
56943;SDS011;42848;42.524;12.052;2024-03-17T10:42:03;18.52;;;9.90;;
56943;SDS011;42848;42.524;12.052;2024-03-17T10:44:30;47.88;;;28.85;;
56943;SDS011;42848;42.524;12.052;2024-03-17T10:46:58;10.50;;;7.80;;
56943;SDS011;42848;42.524;12.052;2024-03-17T10:49:29;9.07;;;6.88;;
56943;SDS011;42848;42.524;12.052;2024-03-17T10:51:57;11.88;;;8.98;;
56943;SDS011;42848;42.524;12.052;2024-03-17T10:54:29;15.32;;;11.07;;
56943;SDS011;42848;42.524;12.052;2024-03-17T10:56:57;11.25;;;7.80;;
56943;SDS011;42848;42.524;12.052;2024-03-17T10:59:40;11.65;;;8.02;;
56943;SDS011;42848;42.524;12.052;2024-03-17T11:02:25;13.55;;;10.20;;
56943;SDS011;42848;42.524;12.052;2024-03-17T11:04:57;13.68;;;9.65;;
56943;SDS011;42848;42.524;12.052;2024-03-17T11:07:25;18.25;;;13.05;;
56943;SDS011;42848;42.524;12.052;2024-03-17T11:09:53;17.85;;;12.32;;
56943;SDS011;42848;42.524;12.052;2024-03-17T11:17:44;15.70;;;10.63;;
56943;SDS011;42848;42.524;12.052;2024-03-17T11:20:14;11.95;;;8.30;;
56943;SDS011;42848;42.524;12.052;2024-03-17T11:22:42;11.98;;;9.07;;
56943;SDS011;42848;42.524;12.052;2024-03-17T11:27:57;9.65;;;7.03;;
56943;SDS011;42848;42.524;12.052;2024-03-17T11:38:57;7.95;;;5.13;;
56943;SDS011;42848;42.524;12.052;2024-03-17T11:46:56;7.53;;;4.78;;
56943;SDS011;42848;42.524;12.052;2024-03-17T11:49:36;7.65;;;4.60;;
56943;SDS011;42848;42.524;12.052;2024-03-17T11:52:03;5.78;;;3.42;;
56943;SDS011;42848;42.524;12.052;2024-03-17T11:54:40;4.43;;;3.17;;
56943;SDS011;42848;42.524;12.052;2024-03-17T11:57:10;5.45;;;3.95;;
56943;SDS011;42848;42.524;12.052;2024-03-17T11:59:47;6.32;;;4.60;;
56943;SDS011;42848;42.524;12.052;2024-03-17T12:02:20;6.50;;;4.22;;
56943;SDS011;42848;42.524;12.052;2024-03-17T12:04:52;6.22;;;4.22;;
56943;SDS011;42848;42.524;12.052;2024-03-17T12:07:20;7.70;;;4.40;;
56943;SDS011;42848;42.524;12.052;2024-03-17T12:09:49;5.05;;;3.60;;
56943;SDS011;42848;42.524;12.052;2024-03-17T12:15:00;5.40;;;3.50;;
56943;SDS011;42848;42.524;12.052;2024-03-17T12:17:28;6.55;;;3.70;;
56943;SDS011;42848;42.524;12.052;2024-03-17T12:19:54;4.88;;;3.30;;
56943;SDS011;42848;42.524;12.052;2024-03-17T12:22:25;7.20;;;4.50;;
56943;SDS011;42848;42.524;12.052;2024-03-17T12:24:58;5.15;;;3.08;;
56943;SDS011;42848;42.524;12.052;2024-03-17T12:27:25;5.57;;;3.60;;
56943;SDS011;42848;42.524;12.052;2024-03-17T12:29:52;4.32;;;3.25;;
56943;SDS011;42848;42.524;12.052;2024-03-17T12:34:46;4.90;;;3.33;;
56943;SDS011;42848;42.524;12.052;2024-03-17T12:37:18;5.25;;;3.35;;
56943;SDS011;42848;42.524;12.052;2024-03-17T12:39:45;7.13;;;3.67;;
56943;SDS011;42848;42.524;12.052;2024-03-17T12:42:12;5.18;;;3.75;;
56943;SDS011;42848;42.524;12.052;2024-03-17T12:44:40;5.30;;;3.20;;
56943;SDS011;42848;42.524;12.052;2024-03-17T12:47:16;7.38;;;4.95;;
56943;SDS011;42848;42.524;12.052;2024-03-17T12:52:19;4.32;;;2.60;;
56943;SDS011;42848;42.524;12.052;2024-03-17T12:54:58;3.30;;;2.60;;
56943;SDS011;42848;42.524;12.052;2024-03-17T12:57:48;3.85;;;2.30;;
56943;SDS011;42848;42.524;12.052;2024-03-17T13:00:33;3.95;;;2.10;;
56943;SDS011;42848;42.524;12.052;2024-03-17T13:03:06;3.80;;;2.42;;
56943;SDS011;42848;42.524;12.052;2024-03-17T13:05:33;2.80;;;2.20;;
56943;SDS011;42848;42.524;12.052;2024-03-17T13:08:00;3.75;;;2.22;;
56943;SDS011;42848;42.524;12.052;2024-03-17T13:10:28;3.70;;;2.63;;
56943;SDS011;42848;42.524;12.052;2024-03-17T13:12:58;4.35;;;2.97;;
56943;SDS011;42848;42.524;12.052;2024-03-17T13:15:26;3.97;;;2.53;;
56943;SDS011;42848;42.524;12.052;2024-03-17T13:17:52;4.35;;;2.63;;
56943;SDS011;42848;42.524;12.052;2024-03-17T13:20:17;3.47;;;2.45;;
56943;SDS011;42848;42.524;12.052;2024-03-17T13:22:43;5.68;;;2.40;;
56943;SDS011;42848;42.524;12.052;2024-03-17T13:25:16;17.80;;;15.05;;
56943;SDS011;42848;42.524;12.052;2024-03-17T13:27:48;5.05;;;3.53;;
56943;SDS011;42848;42.524;12.052;2024-03-17T13:30:15;3.85;;;2.40;;
56943;SDS011;42848;42.524;12.052;2024-03-17T13:32:42;3.88;;;2.33;;
56943;SDS011;42848;42.524;12.052;2024-03-17T13:37:46;4.85;;;3.38;;
56943;SDS011;42848;42.524;12.052;2024-03-17T13:40:14;4.45;;;2.35;;
56943;SDS011;42848;42.524;12.052;2024-03-17T13:42:51;4.10;;;2.80;;
56943;SDS011;42848;42.524;12.052;2024-03-17T13:45:19;6.30;;;2.97;;
56943;SDS011;42848;42.524;12.052;2024-03-17T13:50:23;5.80;;;3.40;;
56943;SDS011;42848;42.524;12.052;2024-03-17T13:52:49;5.80;;;3.38;;
56943;SDS011;42848;42.524;12.052;2024-03-17T13:57:43;5.75;;;3.42;;
56943;SDS011;42848;42.524;12.052;2024-03-17T14:00:09;5.53;;;3.33;;
56943;SDS011;42848;42.524;12.052;2024-03-17T14:02:44;5.25;;;3.45;;
56943;SDS011;42848;42.524;12.052;2024-03-17T14:05:14;5.35;;;3.47;;
56943;SDS011;42848;42.524;12.052;2024-03-17T14:07:43;6.20;;;3.40;;
56943;SDS011;42848;42.524;12.052;2024-03-17T14:10:10;6.38;;;3.60;;
56943;SDS011;42848;42.524;12.052;2024-03-17T14:12:36;8.00;;;4.32;;
56943;SDS011;42848;42.524;12.052;2024-03-17T14:15:04;5.53;;;3.67;;
56943;SDS011;42848;42.524;12.052;2024-03-17T14:17:30;6.68;;;3.75;;
56943;SDS011;42848;42.524;12.052;2024-03-17T14:19:56;5.43;;;3.53;;
56943;SDS011;42848;42.524;12.052;2024-03-17T14:22:22;4.88;;;3.42;;
56943;SDS011;42848;42.524;12.052;2024-03-17T14:24:48;5.47;;;3.60;;
56943;SDS011;42848;42.524;12.052;2024-03-17T14:27:15;5.55;;;3.47;;
56943;SDS011;42848;42.524;12.052;2024-03-17T14:29:41;4.75;;;3.10;;
56943;SDS011;42848;42.524;12.052;2024-03-17T14:32:08;4.45;;;3.03;;
56943;SDS011;42848;42.524;12.052;2024-03-17T14:34:34;4.85;;;3.17;;
56943;SDS011;42848;42.524;12.052;2024-03-17T14:37:01;4.65;;;2.95;;
56943;SDS011;42848;42.524;12.052;2024-03-17T14:39:30;4.95;;;2.88;;
56943;SDS011;42848;42.524;12.052;2024-03-17T14:41:56;5.00;;;3.08;;
56943;SDS011;42848;42.524;12.052;2024-03-17T14:44:22;4.55;;;3.20;;
56943;SDS011;42848;42.524;12.052;2024-03-17T14:46:49;6.05;;;3.60;;
56943;SDS011;42848;42.524;12.052;2024-03-17T14:49:18;6.85;;;3.65;;
56943;SDS011;42848;42.524;12.052;2024-03-17T14:51:43;6.20;;;2.92;;
56943;SDS011;42848;42.524;12.052;2024-03-17T14:54:09;6.35;;;3.15;;
56943;SDS011;42848;42.524;12.052;2024-03-17T14:56:35;5.65;;;2.90;;
56943;SDS011;42848;42.524;12.052;2024-03-17T14:59:01;5.10;;;3.20;;
56943;SDS011;42848;42.524;12.052;2024-03-17T15:01:27;5.60;;;3.53;;
56943;SDS011;42848;42.524;12.052;2024-03-17T15:03:56;5.05;;;3.40;;
56943;SDS011;42848;42.524;12.052;2024-03-17T15:06:21;4.80;;;2.90;;
56943;SDS011;42848;42.524;12.052;2024-03-17T15:08:47;5.05;;;3.33;;
56943;SDS011;42848;42.524;12.052;2024-03-17T15:11:13;6.60;;;3.22;;
56943;SDS011;42848;42.524;12.052;2024-03-17T15:13:39;5.03;;;3.30;;
56943;SDS011;42848;42.524;12.052;2024-03-17T15:16:07;5.55;;;3.05;;
56943;SDS011;42848;42.524;12.052;2024-03-17T15:18:33;6.40;;;3.20;;
56943;SDS011;42848;42.524;12.052;2024-03-17T15:21:00;5.47;;;3.20;;
56943;SDS011;42848;42.524;12.052;2024-03-17T15:23:27;5.90;;;3.47;;
56943;SDS011;42848;42.524;12.052;2024-03-17T15:26:01;5.30;;;3.00;;